This demonstration page uses our WeatherBlox Daily Observations layout. Learn more.

41.55636, -103.73856

Hourly Observations for November 17, 2019

Temp ( °F °C ) Dew Point ( °F °C ) Humidity (%) Winds ( mph kmh ) Pressure ( in mb ) Visibility ( mi km ) Precip ( " mm )
12:58 am 00:58 Clear 29 -1.8 26 -3.5 88 88 NW 10 17 30.24 1024 10 16.09344 0 0
1:58 am 01:58 Clear 28 -2.5 24 -4.4 87 87 WNW 12 19 30.21 1023 10 16.09344 0 0
2:58 am 02:58 Clear 25 -3.7 22 -5.5 87 87 NW 9 15 30.27 1025 10 16.09344 0 0
3:58 am 03:58 Clear 26 -3.4 22 -5.6 85 85 NW 9 15 30.27 1025 10 16.09344 0 0
4:58 am 04:58 Clear 24 -4.2 21 -6.3 85 85 WNW 10 17 30.24 1024 10 16.09344 0 0
5:58 am 05:58 Clear 23 -5 19 -7 86 86 W 7 11 30.27 1025 10 16.09344 0 0
6:58 am 06:58 Sunny 24 -4.2 20 -6.6 84 84 WNW 13 20 30.24 1024 10 16.09344 0 0
7:58 am 07:58 Sunny 29 -1.6 25 -3.8 85 85 WNW 10 17 30.24 1024 10 16.09344 0 0
8:57 am 08:57 Sunny 37 2.5 29 -1.9 73 73 W 13 20 30.18 1022 10 16.09344 0 0
11:57 am 11:57 Sunny 52 11 24 -4.4 34 34 NNW 22 35 30.06 1018 10 16.09344 0 0
12:58 pm 12:58 Sunny 52 11.1 24 -4.5 33 33 NW 22 35 30.03 1017 10 16.09344 0 0
1:58 pm 13:58 Sunny 55 12.8 24 -4.5 30 30 NW 22 35 30 1016 10 16.09344 0 0
2:58 pm 14:58 Mostly Sunny 54 12.2 25 -3.7 33 33 NNW 18 30 30 1016 10 16.09344 0 0
3:58 pm 15:58 Mostly Cloudy 52 11.1 26 -3.3 37 37 NW 15 24 30 1016 10 16.09344 0 0
4:58 pm 16:58 Mostly Cloudy 50 9.9 27 -2.9 41 41 NW 17 28 30.03 1017 10 16.09344 0 0
5:58 pm 17:58 Mostly Clear 51 10.3 26 -3.5 38 38 NW 23 37 30 1016 10 16.09344 0 0
6:58 pm 18:58 Mostly Cloudy 50 10.2 26 -3.1 39 39 WNW 18 30 30 1016 10 16.09344 0 0
7:58 pm 19:58 Cloudy 51 10.8 27 -3 38 38 WNW 20 31 29.97 1015 10 16.09344 0 0
8:58 pm 20:58 Mostly Cloudy 51 10.4 26 -3.2 39 39 WNW 21 33 29.85 1011 10 16.09344 0 0
9:58 pm 21:58 Mostly Cloudy 51 10.4 28 -2.4 41 41 WNW 17 28 29.83 1010 10 16.09344 0 0
10:58 pm 22:58 Clear 49 9.4 29 -1.9 45 45 WNW 12 19 29.85 1011 10 16.09344 0 0
11:58 pm 23:58 Mostly Cloudy 50 10 29 -1.6 45 45 NW 12 19 29.85 1011 10 16.09344 0 0

Powered by AerisWeather